sensor_id;sensor_type;location;lat;lon;timestamp;temperature;humidity
9393;DHT22;4736;52.508;13.422;2022-08-01T00:00:58;22.10;1.00
9393;DHT22;4736;52.508;13.422;2022-08-01T00:04:01;22.10;1.00
9393;DHT22;4736;52.508;13.422;2022-08-01T00:07:04;22.10;1.00
9393;DHT22;4736;52.508;13.422;2022-08-01T00:10:09;22.10;1.00
9393;DHT22;4736;52.508;13.422;2022-08-01T00:13:13;22.00;1.00
9393;DHT22;4736;52.508;13.422;2022-08-01T00:16:17;22.00;1.00
9393;DHT22;4736;52.508;13.422;2022-08-01T00:19:19;21.90;1.00
9393;DHT22;4736;52.508;13.422;2022-08-01T00:22:22;21.90;1.00
9393;DHT22;4736;52.508;13.422;2022-08-01T00:25:25;21.80;1.00
9393;DHT22;4736;52.508;13.422;2022-08-01T00:28:36;21.70;1.00
9393;DHT22;4736;52.508;13.422;2022-08-01T00:31:39;21.90;1.00
9393;DHT22;4736;52.508;13.422;2022-08-01T00:34:42;21.70;1.00
9393;DHT22;4736;52.508;13.422;2022-08-01T00:37:45;21.70;1.00
9393;DHT22;4736;52.508;13.422;2022-08-01T00:40:48;21.70;1.00
9393;DHT22;4736;52.508;13.422;2022-08-01T00:43:52;21.70;1.00
9393;DHT22;4736;52.508;13.422;2022-08-01T00:46:55;21.70;1.00
9393;DHT22;4736;52.508;13.422;2022-08-01T00:49:59;21.70;1.00
9393;DHT22;4736;52.508;13.422;2022-08-01T00:53:02;21.60;1.00
9393;DHT22;4736;52.508;13.422;2022-08-01T00:56:05;21.60;1.00
9393;DHT22;4736;52.508;13.422;2022-08-01T00:59:11;21.60;1.00
9393;DHT22;4736;52.508;13.422;2022-08-01T01:02:15;21.50;1.00
9393;DHT22;4736;52.508;13.422;2022-08-01T01:05:19;21.40;1.00
9393;DHT22;4736;52.508;13.422;2022-08-01T01:08:29;21.40;1.00
9393;DHT22;4736;52.508;13.422;2022-08-01T01:11:39;21.40;1.00
9393;DHT22;4736;52.508;13.422;2022-08-01T01:14:56;21.40;1.00
9393;DHT22;4736;52.508;13.422;2022-08-01T01:18:03;21.30;1.00
9393;DHT22;4736;52.508;13.422;2022-08-01T01:21:30;21.30;1.00
9393;DHT22;4736;52.508;13.422;2022-08-01T01:24:43;21.20;1.00
9393;DHT22;4736;52.508;13.422;2022-08-01T01:27:55;21.20;1.00
9393;DHT22;4736;52.508;13.422;2022-08-01T01:31:06;21.10;1.00
9393;DHT22;4736;52.508;13.422;2022-08-01T01:34:13;21.10;1.00
9393;DHT22;4736;52.508;13.422;2022-08-01T01:37:19;21.10;1.00
9393;DHT22;4736;52.508;13.422;2022-08-01T01:40:23;21.00;1.00
9393;DHT22;4736;52.508;13.422;2022-08-01T01:43:27;21.00;1.00
9393;DHT22;4736;52.508;13.422;2022-08-01T01:46:36;21.00;1.00
9393;DHT22;4736;52.508;13.422;2022-08-01T01:49:40;21.00;1.00
9393;DHT22;4736;52.508;13.422;2022-08-01T01:52:44;21.00;1.00
9393;DHT22;4736;52.508;13.422;2022-08-01T01:55:52;21.00;1.00
9393;DHT22;4736;52.508;13.422;2022-08-01T01:58:59;21.00;1.00
9393;DHT22;4736;52.508;13.422;2022-08-01T02:02:05;20.90;1.00
9393;DHT22;4736;52.508;13.422;2022-08-01T02:05:12;20.90;1.00
9393;DHT22;4736;52.508;13.422;2022-08-01T02:08:16;20.90;1.00
9393;DHT22;4736;52.508;13.422;2022-08-01T02:11:20;20.80;1.00
9393;DHT22;4736;52.508;13.422;2022-08-01T02:14:24;20.80;1.00
9393;DHT22;4736;52.508;13.422;2022-08-01T02:17:30;20.70;1.00
9393;DHT22;4736;52.508;13.422;2022-08-01T02:20:34;20.70;1.00
9393;DHT22;4736;52.508;13.422;2022-08-01T02:23:40;20.60;1.00
9393;DHT22;4736;52.508;13.422;2022-08-01T02:26:49;20.60;1.00
9393;DHT22;4736;52.508;13.422;2022-08-01T02:29:57;20.50;1.00
9393;DHT22;4736;52.508;13.422;2022-08-01T02:33:05;20.40;1.00
9393;DHT22;4736;52.508;13.422;2022-08-01T02:36:19;20.30;1.00
9393;DHT22;4736;52.508;13.422;2022-08-01T02:39:35;20.30;1.00
9393;DHT22;4736;52.508;13.422;2022-08-01T02:42:42;20.20;1.00
9393;DHT22;4736;52.508;13.422;2022-08-01T02:45:54;20.20;1.00
9393;DHT22;4736;52.508;13.422;2022-08-01T02:49:01;20.20;1.00
9393;DHT22;4736;52.508;13.422;2022-08-01T02:52:08;20.20;1.00
9393;DHT22;4736;52.508;13.422;2022-08-01T02:55:13;20.20;1.00
9393;DHT22;4736;52.508;13.422;2022-08-01T02:58:18;20.20;1.00
9393;DHT22;4736;52.508;13.422;2022-08-01T03:01:31;20.20;1.00
9393;DHT22;4736;52.508;13.422;2022-08-01T03:04:38;20.10;1.00
9393;DHT22;4736;52.508;13.422;2022-08-01T03:07:43;20.10;1.00
9393;DHT22;4736;52.508;13.422;2022-08-01T03:10:50;20.10;1.00
9393;DHT22;4736;52.508;13.422;2022-08-01T03:13:56;20.10;1.00
9393;DHT22;4736;52.508;13.422;2022-08-01T03:17:02;20.10;1.00
9393;DHT22;4736;52.508;13.422;2022-08-01T03:20:11;20.10;1.00
9393;DHT22;4736;52.508;13.422;2022-08-01T03:23:15;20.10;1.00
9393;DHT22;4736;52.508;13.422;2022-08-01T03:26:19;20.10;1.00
9393;DHT22;4736;52.508;13.422;2022-08-01T03:29:25;20.00;1.00
9393;DHT22;4736;52.508;13.422;2022-08-01T03:32:30;20.00;1.00
9393;DHT22;4736;52.508;13.422;2022-08-01T03:35:37;20.00;1.00
9393;DHT22;4736;52.508;13.422;2022-08-01T03:38:43;20.10;1.00
9393;DHT22;4736;52.508;13.422;2022-08-01T03:41:59;20.10;1.00
9393;DHT22;4736;52.508;13.422;2022-08-01T03:45:06;20.10;1.00
9393;DHT22;4736;52.508;13.422;2022-08-01T03:48:16;20.10;1.00
9393;DHT22;4736;52.508;13.422;2022-08-01T03:51:21;20.10;1.00
9393;DHT22;4736;52.508;13.422;2022-08-01T03:54:28;20.10;1.00
9393;DHT22;4736;52.508;13.422;2022-08-01T03:57:34;20.10;1.00
9393;DHT22;4736;52.508;13.422;2022-08-01T04:00:38;20.10;1.00
9393;DHT22;4736;52.508;13.422;2022-08-01T04:03:42;20.10;1.00
9393;DHT22;4736;52.508;13.422;2022-08-01T04:06:46;20.10;1.00
9393;DHT22;4736;52.508;13.422;2022-08-01T04:09:52;20.20;1.00
9393;DHT22;4736;52.508;13.422;2022-08-01T04:12:55;20.20;1.00
9393;DHT22;4736;52.508;13.422;2022-08-01T04:15:58;20.20;1.00
9393;DHT22;4736;52.508;13.422;2022-08-01T04:19:04;20.20;1.00
9393;DHT22;4736;52.508;13.422;2022-08-01T04:22:12;20.20;1.00
9393;DHT22;4736;52.508;13.422;2022-08-01T04:25:19;20.20;1.00
9393;DHT22;4736;52.508;13.422;2022-08-01T04:28:24;20.30;1.00
9393;DHT22;4736;52.508;13.422;2022-08-01T04:31:29;20.30;1.00
9393;DHT22;4736;52.508;13.422;2022-08-01T04:34:33;20.30;1.00
9393;DHT22;4736;52.508;13.422;2022-08-01T04:37:39;20.30;1.00
9393;DHT22;4736;52.508;13.422;2022-08-01T04:40:44;20.30;1.00
9393;DHT22;4736;52.508;13.422;2022-08-01T04:43:48;20.30;1.00
9393;DHT22;4736;52.508;13.422;2022-08-01T04:46:53;20.30;1.00
9393;DHT22;4736;52.508;13.422;2022-08-01T04:49:58;20.40;1.00
9393;DHT22;4736;52.508;13.422;2022-08-01T04:53:03;20.40;1.00
9393;DHT22;4736;52.508;13.422;2022-08-01T04:56:06;20.40;1.00
9393;DHT22;4736;52.508;13.422;2022-08-01T04:59:09;20.40;1.00
9393;DHT22;4736;52.508;13.422;2022-08-01T05:02:30;20.50;1.00
9393;DHT22;4736;52.508;13.422;2022-08-01T05:05:33;20.50;1.00
9393;DHT22;4736;52.508;13.422;2022-08-01T05:08:37;20.40;1.00
9393;DHT22;4736;52.508;13.422;2022-08-01T05:11:40;20.30;1.00
9393;DHT22;4736;52.508;13.422;2022-08-01T05:14:44;20.30;1.00
9393;DHT22;4736;52.508;13.422;2022-08-01T05:17:47;20.30;1.00
9393;DHT22;4736;52.508;13.422;2022-08-01T05:20:50;20.30;1.00
9393;DHT22;4736;52.508;13.422;2022-08-01T05:23:54;20.20;1.00
9393;DHT22;4736;52.508;13.422;2022-08-01T05:26:58;20.20;1.00
9393;DHT22;4736;52.508;13.422;2022-08-01T05:30:05;20.20;1.00
9393;DHT22;4736;52.508;13.422;2022-08-01T05:33:08;20.30;1.00
9393;DHT22;4736;52.508;13.422;2022-08-01T05:36:11;20.30;1.00
9393;DHT22;4736;52.508;13.422;2022-08-01T05:39:15;20.30;1.00
9393;DHT22;4736;52.508;13.422;2022-08-01T05:42:18;20.30;1.00
9393;DHT22;4736;52.508;13.422;2022-08-01T05:45:21;20.30;1.00
9393;DHT22;4736;52.508;13.422;2022-08-01T05:48:24;20.40;1.00
9393;DHT22;4736;52.508;13.422;2022-08-01T05:51:27;20.50;1.00
9393;DHT22;4736;52.508;13.422;2022-08-01T05:54:32;20.50;1.00
9393;DHT22;4736;52.508;13.422;2022-08-01T05:57:35;20.50;1.00
9393;DHT22;4736;52.508;13.422;2022-08-01T06:00:41;20.60;1.00
9393;DHT22;4736;52.508;13.422;2022-08-01T06:03:44;20.70;1.00
9393;DHT22;4736;52.508;13.422;2022-08-01T06:06:47;20.80;1.00
9393;DHT22;4736;52.508;13.422;2022-08-01T06:09:51;20.90;1.00
9393;DHT22;4736;52.508;13.422;2022-08-01T06:12:55;21.10;1.00
9393;DHT22;4736;52.508;13.422;2022-08-01T06:15:58;21.10;1.00
9393;DHT22;4736;52.508;13.422;2022-08-01T06:19:00;21.20;1.00
9393;DHT22;4736;52.508;13.422;2022-08-01T06:22:03;21.20;1.00
9393;DHT22;4736;52.508;13.422;2022-08-01T06:25:09;21.20;1.00
9393;DHT22;4736;52.508;13.422;2022-08-01T06:28:12;21.10;1.00
9393;DHT22;4736;52.508;13.422;2022-08-01T06:31:15;21.20;1.00
9393;DHT22;4736;52.508;13.422;2022-08-01T06:34:17;21.30;1.00
9393;DHT22;4736;52.508;13.422;2022-08-01T06:37:21;21.10;1.00
9393;DHT22;4736;52.508;13.422;2022-08-01T06:40:25;21.20;1.00
9393;DHT22;4736;52.508;13.422;2022-08-01T06:43:28;21.20;1.00
9393;DHT22;4736;52.508;13.422;2022-08-01T06:46:31;21.20;1.00
9393;DHT22;4736;52.508;13.422;2022-08-01T06:49:35;21.30;1.00
9393;DHT22;4736;52.508;13.422;2022-08-01T06:52:38;21.50;1.00
9393;DHT22;4736;52.508;13.422;2022-08-01T06:55:43;21.60;1.00
9393;DHT22;4736;52.508;13.422;2022-08-01T06:58:46;21.70;1.00
9393;DHT22;4736;52.508;13.422;2022-08-01T07:01:48;21.80;1.00
9393;DHT22;4736;52.508;13.422;2022-08-01T07:04:51;21.90;1.00
9393;DHT22;4736;52.508;13.422;2022-08-01T07:07:54;22.00;1.00
9393;DHT22;4736;52.508;13.422;2022-08-01T07:10:59;22.00;1.00
9393;DHT22;4736;52.508;13.422;2022-08-01T07:14:02;22.10;1.00
9393;DHT22;4736;52.508;13.422;2022-08-01T07:17:05;21.90;1.00
9393;DHT22;4736;52.508;13.422;2022-08-01T07:20:10;21.90;1.00
9393;DHT22;4736;52.508;13.422;2022-08-01T07:23:17;22.00;1.00
9393;DHT22;4736;52.508;13.422;2022-08-01T07:26:24;22.00;1.00
9393;DHT22;4736;52.508;13.422;2022-08-01T07:29:28;22.20;1.00
9393;DHT22;4736;52.508;13.422;2022-08-01T07:32:31;22.30;1.00
9393;DHT22;4736;52.508;13.422;2022-08-01T07:35:35;22.30;1.00
9393;DHT22;4736;52.508;13.422;2022-08-01T07:38:39;22.20;1.00
9393;DHT22;4736;52.508;13.422;2022-08-01T07:41:44;22.10;1.00
9393;DHT22;4736;52.508;13.422;2022-08-01T07:45:07;22.10;1.00
9393;DHT22;4736;52.508;13.422;2022-08-01T07:48:10;22.00;1.00
9393;DHT22;4736;52.508;13.422;2022-08-01T07:51:13;21.90;1.00
9393;DHT22;4736;52.508;13.422;2022-08-01T07:54:16;21.90;1.00
9393;DHT22;4736;52.508;13.422;2022-08-01T07:57:21;22.00;1.00
9393;DHT22;4736;52.508;13.422;2022-08-01T08:00:24;22.10;1.00
9393;DHT22;4736;52.508;13.422;2022-08-01T08:03:27;22.20;1.00
9393;DHT22;4736;52.508;13.422;2022-08-01T08:06:29;22.20;1.00
9393;DHT22;4736;52.508;13.422;2022-08-01T08:09:33;22.10;1.00
9393;DHT22;4736;52.508;13.422;2022-08-01T08:12:39;22.00;1.00
9393;DHT22;4736;52.508;13.422;2022-08-01T08:15:43;21.90;1.00
9393;DHT22;4736;52.508;13.422;2022-08-01T08:18:49;21.80;1.00
9393;DHT22;4736;52.508;13.422;2022-08-01T08:21:52;21.60;1.00
9393;DHT22;4736;52.508;13.422;2022-08-01T08:24:55;21.50;1.00
9393;DHT22;4736;52.508;13.422;2022-08-01T08:28:03;21.40;1.00
9393;DHT22;4736;52.508;13.422;2022-08-01T08:31:06;21.50;1.00
9393;DHT22;4736;52.508;13.422;2022-08-01T08:34:29;21.60;1.00
9393;DHT22;4736;52.508;13.422;2022-08-01T08:37:32;21.80;1.00
9393;DHT22;4736;52.508;13.422;2022-08-01T08:40:44;21.90;1.00
9393;DHT22;4736;52.508;13.422;2022-08-01T08:43:48;22.00;1.00
9393;DHT22;4736;52.508;13.422;2022-08-01T08:46:52;21.90;1.00
9393;DHT22;4736;52.508;13.422;2022-08-01T08:49:57;22.00;1.00
9393;DHT22;4736;52.508;13.422;2022-08-01T08:53:01;22.00;1.00
9393;DHT22;4736;52.508;13.422;2022-08-01T08:56:08;22.10;1.00
9393;DHT22;4736;52.508;13.422;2022-08-01T08:59:13;22.20;1.00
9393;DHT22;4736;52.508;13.422;2022-08-01T09:02:16;22.20;1.00
9393;DHT22;4736;52.508;13.422;2022-08-01T09:05:19;22.10;1.00
9393;DHT22;4736;52.508;13.422;2022-08-01T09:08:40;22.10;1.00
9393;DHT22;4736;52.508;13.422;2022-08-01T09:11:43;22.30;1.00
9393;DHT22;4736;52.508;13.422;2022-08-01T09:14:59;22.50;1.00
9393;DHT22;4736;52.508;13.422;2022-08-01T09:18:02;22.80;1.00
9393;DHT22;4736;52.508;13.422;2022-08-01T09:21:10;22.90;1.00
9393;DHT22;4736;52.508;13.422;2022-08-01T09:24:15;22.80;1.00
9393;DHT22;4736;52.508;13.422;2022-08-01T09:27:31;22.70;1.00
9393;DHT22;4736;52.508;13.422;2022-08-01T09:30:38;22.60;1.00
9393;DHT22;4736;52.508;13.422;2022-08-01T09:33:50;22.50;1.00
9393;DHT22;4736;52.508;13.422;2022-08-01T09:36:55;22.50;1.00
9393;DHT22;4736;52.508;13.422;2022-08-01T09:39:58;22.60;1.00
9393;DHT22;4736;52.508;13.422;2022-08-01T09:43:10;22.70;1.00
9393;DHT22;4736;52.508;13.422;2022-08-01T09:46:17;22.80;1.00
9393;DHT22;4736;52.508;13.422;2022-08-01T09:49:29;22.80;1.00
9393;DHT22;4736;52.508;13.422;2022-08-01T09:52:53;22.80;1.00
9393;DHT22;4736;52.508;13.422;2022-08-01T09:56:08;22.70;1.00
9393;DHT22;4736;52.508;13.422;2022-08-01T09:59:12;22.60;1.00
9393;DHT22;4736;52.508;13.422;2022-08-01T10:02:29;22.60;1.00
9393;DHT22;4736;52.508;13.422;2022-08-01T10:05:34;22.50;1.00
9393;DHT22;4736;52.508;13.422;2022-08-01T10:08:45;22.50;1.00
9393;DHT22;4736;52.508;13.422;2022-08-01T10:11:50;22.60;1.00
9393;DHT22;4736;52.508;13.422;2022-08-01T10:14:53;22.70;1.00
9393;DHT22;4736;52.508;13.422;2022-08-01T10:18:01;22.80;1.00
9393;DHT22;4736;52.508;13.422;2022-08-01T10:21:04;22.80;1.00
9393;DHT22;4736;52.508;13.422;2022-08-01T10:24:12;22.90;1.00
9393;DHT22;4736;52.508;13.422;2022-08-01T10:27:19;22.90;1.00
9393;DHT22;4736;52.508;13.422;2022-08-01T10:30:41;23.00;1.00
9393;DHT22;4736;52.508;13.422;2022-08-01T10:33:48;23.00;1.00
9393;DHT22;4736;52.508;13.422;2022-08-01T10:36:54;23.00;1.00
9393;DHT22;4736;52.508;13.422;2022-08-01T10:39:57;23.10;1.00
9393;DHT22;4736;52.508;13.422;2022-08-01T10:43:20;23.10;1.00
9393;DHT22;4736;52.508;13.422;2022-08-01T10:46:23;23.10;1.00
9393;DHT22;4736;52.508;13.422;2022-08-01T10:49:30;23.10;1.00
9393;DHT22;4736;52.508;13.422;2022-08-01T10:52:37;23.00;1.00
9393;DHT22;4736;52.508;13.422;2022-08-01T10:55:51;22.90;1.00
9393;DHT22;4736;52.508;13.422;2022-08-01T10:59:02;22.90;1.00
9393;DHT22;4736;52.508;13.422;2022-08-01T11:02:25;23.00;1.00
9393;DHT22;4736;52.508;13.422;2022-08-01T11:05:35;22.90;1.00
9393;DHT22;4736;52.508;13.422;2022-08-01T11:08:38;22.90;1.00
9393;DHT22;4736;52.508;13.422;2022-08-01T11:12:01;23.00;1.00
9393;DHT22;4736;52.508;13.422;2022-08-01T11:15:23;23.10;1.00
9393;DHT22;4736;52.508;13.422;2022-08-01T11:18:32;23.40;1.00
9393;DHT22;4736;52.508;13.422;2022-08-01T11:22:01;23.70;1.00
9393;DHT22;4736;52.508;13.422;2022-08-01T11:25:05;23.70;1.00
9393;DHT22;4736;52.508;13.422;2022-08-01T11:28:18;23.60;1.00
9393;DHT22;4736;52.508;13.422;2022-08-01T11:31:33;23.40;1.00
9393;DHT22;4736;52.508;13.422;2022-08-01T11:34:52;23.30;1.00
9393;DHT22;4736;52.508;13.422;2022-08-01T11:37:56;22.90;1.00
9393;DHT22;4736;52.508;13.422;2022-08-01T11:41:22;22.60;1.00
9393;DHT22;4736;52.508;13.422;2022-08-01T11:44:48;22.40;1.00
9393;DHT22;4736;52.508;13.422;2022-08-01T11:47:51;22.20;1.00
9393;DHT22;4736;52.508;13.422;2022-08-01T11:50:57;22.20;1.00
9393;DHT22;4736;52.508;13.422;2022-08-01T11:54:04;22.10;1.00
9393;DHT22;4736;52.508;13.422;2022-08-01T11:57:09;22.10;1.00
9393;DHT22;4736;52.508;13.422;2022-08-01T12:00:14;22.30;1.00
9393;DHT22;4736;52.508;13.422;2022-08-01T12:03:23;22.40;1.00
9393;DHT22;4736;52.508;13.422;2022-08-01T12:06:34;22.50;1.00
9393;DHT22;4736;52.508;13.422;2022-08-01T12:09:39;22.90;1.00
9393;DHT22;4736;52.508;13.422;2022-08-01T12:12:44;23.10;1.00
9393;DHT22;4736;52.508;13.422;2022-08-01T12:15:47;23.50;1.00
9393;DHT22;4736;52.508;13.422;2022-08-01T12:18:57;23.70;1.00
9393;DHT22;4736;52.508;13.422;2022-08-01T12:22:11;24.10;1.00
9393;DHT22;4736;52.508;13.422;2022-08-01T12:25:17;24.40;1.00
9393;DHT22;4736;52.508;13.422;2022-08-01T12:28:20;24.60;1.00
9393;DHT22;4736;52.508;13.422;2022-08-01T12:31:31;24.70;1.00
9393;DHT22;4736;52.508;13.422;2022-08-01T12:34:34;24.80;1.00
9393;DHT22;4736;52.508;13.422;2022-08-01T12:37:38;24.70;1.00
9393;DHT22;4736;52.508;13.422;2022-08-01T12:40:45;24.50;1.00
9393;DHT22;4736;52.508;13.422;2022-08-01T12:43:55;24.50;1.00
9393;DHT22;4736;52.508;13.422;2022-08-01T12:46:59;24.50;1.00
9393;DHT22;4736;52.508;13.422;2022-08-01T12:50:05;24.30;1.00
9393;DHT22;4736;52.508;13.422;2022-08-01T12:53:09;24.50;1.00
9393;DHT22;4736;52.508;13.422;2022-08-01T12:56:31;24.80;1.00
9393;DHT22;4736;52.508;13.422;2022-08-01T12:59:34;24.80;1.00
9393;DHT22;4736;52.508;13.422;2022-08-01T13:02:38;24.90;1.00
9393;DHT22;4736;52.508;13.422;2022-08-01T13:05:46;25.10;1.00
9393;DHT22;4736;52.508;13.422;2022-08-01T13:08:49;25.20;1.00
9393;DHT22;4736;52.508;13.422;2022-08-01T13:11:54;25.40;1.00
9393;DHT22;4736;52.508;13.422;2022-08-01T13:15:26;25.50;1.00
9393;DHT22;4736;52.508;13.422;2022-08-01T13:18:33;25.30;1.00
9393;DHT22;4736;52.508;13.422;2022-08-01T13:21:36;25.00;1.00
9393;DHT22;4736;52.508;13.422;2022-08-01T13:25:09;24.80;1.00
9393;DHT22;4736;52.508;13.422;2022-08-01T13:28:17;24.70;1.00
9393;DHT22;4736;52.508;13.422;2022-08-01T13:31:32;24.50;1.00
9393;DHT22;4736;52.508;13.422;2022-08-01T13:34:35;24.50;1.00
9393;DHT22;4736;52.508;13.422;2022-08-01T13:37:40;24.70;1.00
9393;DHT22;4736;52.508;13.422;2022-08-01T13:40:43;24.80;1.00
9393;DHT22;4736;52.508;13.422;2022-08-01T13:43:48;24.80;1.00
9393;DHT22;4736;52.508;13.422;2022-08-01T13:46:59;24.70;1.00
9393;DHT22;4736;52.508;13.422;2022-08-01T13:50:15;24.70;1.00
9393;DHT22;4736;52.508;13.422;2022-08-01T13:53:19;24.70;1.00
9393;DHT22;4736;52.508;13.422;2022-08-01T13:56:22;24.50;1.00
9393;DHT22;4736;52.508;13.422;2022-08-01T13:59:27;24.30;1.00
9393;DHT22;4736;52.508;13.422;2022-08-01T14:02:30;24.10;1.00
9393;DHT22;4736;52.508;13.422;2022-08-01T14:05:33;24.00;1.00
9393;DHT22;4736;52.508;13.422;2022-08-01T14:08:37;23.90;1.00
9393;DHT22;4736;52.508;13.422;2022-08-01T14:11:46;24.00;1.00
9393;DHT22;4736;52.508;13.422;2022-08-01T14:14:50;24.10;1.00
9393;DHT22;4736;52.508;13.422;2022-08-01T14:17:53;24.40;1.00
9393;DHT22;4736;52.508;13.422;2022-08-01T14:20:56;24.60;1.00
9393;DHT22;4736;52.508;13.422;2022-08-01T14:24:07;24.80;1.00
9393;DHT22;4736;52.508;13.422;2022-08-01T14:27:11;25.00;1.00
9393;DHT22;4736;52.508;13.422;2022-08-01T14:30:15;25.30;1.00
9393;DHT22;4736;52.508;13.422;2022-08-01T14:33:18;25.60;1.00
9393;DHT22;4736;52.508;13.422;2022-08-01T14:36:21;25.90;1.00
9393;DHT22;4736;52.508;13.422;2022-08-01T14:39:32;26.00;1.00
9393;DHT22;4736;52.508;13.422;2022-08-01T14:42:36;26.10;1.00
9393;DHT22;4736;52.508;13.422;2022-08-01T14:45:40;26.20;1.00
9393;DHT22;4736;52.508;13.422;2022-08-01T14:48:43;26.40;1.00
9393;DHT22;4736;52.508;13.422;2022-08-01T14:51:46;26.30;1.00
9393;DHT22;4736;52.508;13.422;2022-08-01T14:54:49;26.30;1.00
9393;DHT22;4736;52.508;13.422;2022-08-01T14:57:52;26.30;1.00
9393;DHT22;4736;52.508;13.422;2022-08-01T15:00:57;26.10;1.00
9393;DHT22;4736;52.508;13.422;2022-08-01T15:04:00;26.00;1.00
9393;DHT22;4736;52.508;13.422;2022-08-01T15:07:10;25.60;1.00
9393;DHT22;4736;52.508;13.422;2022-08-01T15:10:13;25.50;1.00
9393;DHT22;4736;52.508;13.422;2022-08-01T15:13:17;25.40;1.00
9393;DHT22;4736;52.508;13.422;2022-08-01T15:16:22;25.30;1.00
9393;DHT22;4736;52.508;13.422;2022-08-01T15:19:26;25.30;1.00
9393;DHT22;4736;52.508;13.422;2022-08-01T15:22:29;25.10;1.00
9393;DHT22;4736;52.508;13.422;2022-08-01T15:25:32;25.00;1.00
9393;DHT22;4736;52.508;13.422;2022-08-01T15:28:42;24.80;1.00
9393;DHT22;4736;52.508;13.422;2022-08-01T15:31:47;24.70;1.00
9393;DHT22;4736;52.508;13.422;2022-08-01T15:34:50;24.70;1.00
9393;DHT22;4736;52.508;13.422;2022-08-01T15:37:53;24.60;1.00
9393;DHT22;4736;52.508;13.422;2022-08-01T15:40:56;24.60;1.00
9393;DHT22;4736;52.508;13.422;2022-08-01T15:43:59;24.70;1.00
9393;DHT22;4736;52.508;13.422;2022-08-01T15:47:04;24.80;1.00
9393;DHT22;4736;52.508;13.422;2022-08-01T15:50:08;24.70;1.00
9393;DHT22;4736;52.508;13.422;2022-08-01T15:53:11;24.80;1.00
9393;DHT22;4736;52.508;13.422;2022-08-01T15:56:14;25.00;1.00
9393;DHT22;4736;52.508;13.422;2022-08-01T15:59:17;25.00;1.00
9393;DHT22;4736;52.508;13.422;2022-08-01T16:02:25;25.10;1.00
9393;DHT22;4736;52.508;13.422;2022-08-01T16:05:28;25.10;1.00
9393;DHT22;4736;52.508;13.422;2022-08-01T16:08:31;25.30;1.00
9393;DHT22;4736;52.508;13.422;2022-08-01T16:11:34;25.20;1.00
9393;DHT22;4736;52.508;13.422;2022-08-01T16:14:43;25.30;1.00
9393;DHT22;4736;52.508;13.422;2022-08-01T16:17:48;25.30;1.00
9393;DHT22;4736;52.508;13.422;2022-08-01T16:20:51;25.30;1.00
9393;DHT22;4736;52.508;13.422;2022-08-01T16:23:54;25.20;1.00
9393;DHT22;4736;52.508;13.422;2022-08-01T16:26:57;25.20;1.00
9393;DHT22;4736;52.508;13.422;2022-08-01T16:30:00;25.20;1.00
9393;DHT22;4736;52.508;13.422;2022-08-01T16:33:04;25.20;1.00
9393;DHT22;4736;52.508;13.422;2022-08-01T16:36:20;25.10;1.00
9393;DHT22;4736;52.508;13.422;2022-08-01T16:39:25;25.00;1.00
9393;DHT22;4736;52.508;13.422;2022-08-01T16:42:28;25.00;1.00
9393;DHT22;4736;52.508;13.422;2022-08-01T16:45:31;25.00;1.00
9393;DHT22;4736;52.508;13.422;2022-08-01T16:48:36;25.00;1.00
9393;DHT22;4736;52.508;13.422;2022-08-01T16:51:39;24.90;1.00
9393;DHT22;4736;52.508;13.422;2022-08-01T16:54:49;24.80;1.00
9393;DHT22;4736;52.508;13.422;2022-08-01T16:57:51;24.70;1.00
9393;DHT22;4736;52.508;13.422;2022-08-01T17:00:55;24.80;1.00
9393;DHT22;4736;52.508;13.422;2022-08-01T17:04:19;24.70;1.00
9393;DHT22;4736;52.508;13.422;2022-08-01T17:07:22;24.80;1.00
9393;DHT22;4736;52.508;13.422;2022-08-01T17:10:25;24.80;1.00
9393;DHT22;4736;52.508;13.422;2022-08-01T17:13:28;24.70;1.00
9393;DHT22;4736;52.508;13.422;2022-08-01T17:16:33;24.60;1.00
9393;DHT22;4736;52.508;13.422;2022-08-01T17:19:38;24.60;1.00
9393;DHT22;4736;52.508;13.422;2022-08-01T17:22:41;24.60;1.00
9393;DHT22;4736;52.508;13.422;2022-08-01T17:25:44;24.50;1.00
9393;DHT22;4736;52.508;13.422;2022-08-01T17:28:47;24.50;1.00
9393;DHT22;4736;52.508;13.422;2022-08-01T17:31:50;24.40;1.00
9393;DHT22;4736;52.508;13.422;2022-08-01T17:34:55;24.50;1.00
9393;DHT22;4736;52.508;13.422;2022-08-01T17:37:58;24.30;1.00
9393;DHT22;4736;52.508;13.422;2022-08-01T17:41:01;24.30;1.00
9393;DHT22;4736;52.508;13.422;2022-08-01T17:44:04;24.30;1.00
9393;DHT22;4736;52.508;13.422;2022-08-01T17:47:07;24.20;1.00
9393;DHT22;4736;52.508;13.422;2022-08-01T17:50:12;24.10;1.00
9393;DHT22;4736;52.508;13.422;2022-08-01T17:53:15;24.00;1.00
9393;DHT22;4736;52.508;13.422;2022-08-01T17:56:22;24.00;1.00
9393;DHT22;4736;52.508;13.422;2022-08-01T17:59:25;23.90;1.00
9393;DHT22;4736;52.508;13.422;2022-08-01T18:02:28;23.90;1.00
9393;DHT22;4736;52.508;13.422;2022-08-01T18:05:32;23.80;1.00
9393;DHT22;4736;52.508;13.422;2022-08-01T18:08:38;23.80;1.00
9393;DHT22;4736;52.508;13.422;2022-08-01T18:11:42;23.70;1.00
9393;DHT22;4736;52.508;13.422;2022-08-01T18:14:45;23.60;1.00
9393;DHT22;4736;52.508;13.422;2022-08-01T18:17:49;23.60;1.00
9393;DHT22;4736;52.508;13.422;2022-08-01T18:20:54;23.50;1.00
9393;DHT22;4736;52.508;13.422;2022-08-01T18:23:58;23.50;1.00
9393;DHT22;4736;52.508;13.422;2022-08-01T18:27:02;23.50;1.00
9393;DHT22;4736;52.508;13.422;2022-08-01T18:30:06;23.50;1.00
9393;DHT22;4736;52.508;13.422;2022-08-01T18:33:09;23.60;1.00
9393;DHT22;4736;52.508;13.422;2022-08-01T18:36:18;23.50;1.00
9393;DHT22;4736;52.508;13.422;2022-08-01T18:39:34;23.50;1.00
9393;DHT22;4736;52.508;13.422;2022-08-01T18:42:39;23.50;1.00
9393;DHT22;4736;52.508;13.422;2022-08-01T18:45:42;23.40;1.00
9393;DHT22;4736;52.508;13.422;2022-08-01T18:48:45;23.40;1.00
9393;DHT22;4736;52.508;13.422;2022-08-01T18:51:50;23.30;1.00
9393;DHT22;4736;52.508;13.422;2022-08-01T18:54:54;23.20;1.00
9393;DHT22;4736;52.508;13.422;2022-08-01T18:57:57;23.20;1.00
9393;DHT22;4736;52.508;13.422;2022-08-01T19:01:00;23.20;1.00
9393;DHT22;4736;52.508;13.422;2022-08-01T19:04:04;23.10;1.00
9393;DHT22;4736;52.508;13.422;2022-08-01T19:07:09;23.10;1.00
9393;DHT22;4736;52.508;13.422;2022-08-01T19:10:12;23.10;1.00
9393;DHT22;4736;52.508;13.422;2022-08-01T19:13:15;23.10;1.00
9393;DHT22;4736;52.508;13.422;2022-08-01T19:16:18;23.00;1.00
9393;DHT22;4736;52.508;13.422;2022-08-01T19:19:21;23.10;1.00
9393;DHT22;4736;52.508;13.422;2022-08-01T19:22:30;23.10;1.00
9393;DHT22;4736;52.508;13.422;2022-08-01T19:25:33;23.00;1.00
9393;DHT22;4736;52.508;13.422;2022-08-01T19:29:00;22.90;1.00
9393;DHT22;4736;52.508;13.422;2022-08-01T19:32:06;22.80;1.00
9393;DHT22;4736;52.508;13.422;2022-08-01T19:35:13;22.80;1.00
9393;DHT22;4736;52.508;13.422;2022-08-01T19:38:18;22.60;1.00
9393;DHT22;4736;52.508;13.422;2022-08-01T19:41:21;22.60;1.00
9393;DHT22;4736;52.508;13.422;2022-08-01T19:44:26;22.50;1.00
9393;DHT22;4736;52.508;13.422;2022-08-01T19:47:30;22.40;1.00
9393;DHT22;4736;52.508;13.422;2022-08-01T19:50:55;22.40;1.00
9393;DHT22;4736;52.508;13.422;2022-08-01T19:54:03;22.30;1.00
9393;DHT22;4736;52.508;13.422;2022-08-01T19:57:07;22.30;1.00
9393;DHT22;4736;52.508;13.422;2022-08-01T20:00:13;22.20;1.00
9393;DHT22;4736;52.508;13.422;2022-08-01T20:03:28;22.10;1.00
9393;DHT22;4736;52.508;13.422;2022-08-01T20:06:33;22.10;1.00
9393;DHT22;4736;52.508;13.422;2022-08-01T20:09:39;22.00;1.00
9393;DHT22;4736;52.508;13.422;2022-08-01T20:12:43;22.00;1.00
9393;DHT22;4736;52.508;13.422;2022-08-01T20:15:47;22.00;1.00